Time;durP1;ratioP1;P1;durP2;ratioP2;P2;SDS_P1;SDS_P2;PMS_P1;PMS_P2;Temp;Humidity;BMP_temperature;BMP_pressure;BME280_temperature;BME280_humidity;BME280_pressure;Samples;Min_cycle;Max_cycle;Signal;HPM_P1;HPM_P2
2021/05/06 00:10:25;;;;;;;8.70;5.50;;;5.90;1.00;;;;;;5072544;28;20187;-69
2021/05/06 00:34:28;;;;;;;8.40;6.20;;;5.10;99.90;;;;;;5093311;28;20601;-68
2021/05/06 00:36:54;;;;;;;9.10;5.87;;;5.00;99.90;;;;;;5093606;28;20170;-68
2021/05/06 00:39:42;;;;;;;7.90;5.30;;;5.00;99.90;;;;;;5093299;28;20462;-68
2021/05/06 00:56:15;;;;;;;8.55;4.47;;;5.60;63.40;;;;;;5093137;28;20159;-69
2021/05/06 01:06:32;;;;;;;7.75;4.95;;;5.80;1.00;;;;;;5093569;28;20166;-69
2021/05/06 01:09:03;;;;;;;6.35;4.82;;;5.40;1.00;;;;;;5092878;28;20171;-69
2021/05/06 01:11:43;;;;;;;9.82;5.57;;;5.10;17.70;;;;;;5093307;28;20658;-69
2021/05/06 01:14:10;;;;;;;7.93;4.63;;;5.10;99.90;;;;;;5093108;28;20194;-69
2021/05/06 01:16:36;;;;;;;6.72;4.65;;;4.90;99.90;;;;;;5092941;28;20172;-69
2021/05/06 01:19:02;;;;;;;4.88;4.40;;;4.90;99.90;;;;;;5093558;28;20163;-69
2021/05/06 01:21:28;;;;;;;5.38;3.85;;;5.00;99.90;;;;;;5093334;28;20179;-69
2021/05/06 01:23:54;;;;;;;7.20;4.50;;;5.00;99.90;;;;;;5092599;28;20210;-69
2021/05/06 01:26:33;;;;;;;7.05;3.53;;;5.00;99.90;;;;;;5093018;28;20156;-69
2021/05/06 01:29:02;;;;;;;5.50;3.72;;;4.90;99.90;;;;;;5093061;28;20520;-70
2021/05/06 01:31:32;;;;;;;3.80;3.30;;;5.40;99.90;;;;;;5092963;28;20590;-69
2021/05/06 01:36:39;;;;;;;2.95;2.42;;;5.40;99.90;;;;;;5092995;28;20609;-69
2021/05/06 01:39:21;;;;;;;3.35;3.03;;;5.50;1.00;;;;;;5092986;28;20162;-68
2021/05/06 01:41:52;;;;;;;5.00;2.10;;;5.50;1.00;;;;;;5092634;28;20178;-69
2021/05/06 01:47:21;;;;;;;4.20;2.50;;;5.60;1.00;;;;;;5096649;28;20224;-69
2021/05/06 02:00:36;;;;;;;6.10;2.47;;;5.80;1.00;;;;;;5096646;28;20167;-69
2021/05/06 02:03:02;;;;;;;3.80;3.13;;;5.90;1.00;;;;;;5096066;28;20241;-69
2021/05/06 02:05:27;;;;;;;7.23;1.90;;;5.90;1.00;;;;;;5096397;28;20643;-68
2021/05/06 02:07:53;;;;;;;4.30;1.93;;;5.80;1.00;;;;;;5096248;28;20512;-69
2021/05/06 02:10:24;;;;;;;3.50;2.30;;;5.70;1.00;;;;;;5096429;28;20236;-69
2021/05/06 02:12:50;;;;;;;3.35;2.28;;;5.70;1.00;;;;;;5096078;28;20163;-69
2021/05/06 02:15:36;;;;;;;4.20;2.70;;;5.70;1.00;;;;;;5096227;28;20278;-69
2021/05/06 02:18:03;;;;;;;3.85;2.20;;;5.80;1.00;;;;;;5096017;28;20369;-69
2021/05/06 02:20:29;;;;;;;2.63;2.28;;;5.70;1.00;;;;;;5095249;28;20182;-69
2021/05/06 02:22:54;;;;;;;3.07;1.80;;;5.70;1.00;;;;;;5095894;28;20179;-69
2021/05/06 02:25:20;;;;;;;2.20;1.93;;;5.80;1.00;;;;;;5095954;28;20270;-69
2021/05/06 02:27:47;;;;;;;5.30;1.60;;;5.90;1.00;;;;;;5095685;28;20187;-69
2021/05/06 02:30:13;;;;;;;2.00;1.80;;;5.70;1.00;;;;;;5095987;28;20570;-69
2021/05/06 02:32:39;;;;;;;3.67;1.80;;;5.60;1.00;;;;;;5095756;28;20198;-69
2021/05/06 02:35:05;;;;;;;2.35;2.03;;;5.60;1.00;;;;;;5096043;28;20197;-69
2021/05/06 02:37:31;;;;;;;3.78;1.58;;;5.50;1.00;;;;;;5095841;28;20663;-69
2021/05/06 02:39:57;;;;;;;3.00;1.70;;;5.70;1.00;;;;;;5095495;28;20175;-69
2021/05/06 02:42:23;;;;;;;7.77;1.80;;;5.70;1.00;;;;;;5095488;28;20167;-69
2021/05/06 02:44:48;;;;;;;1.87;1.20;;;5.90;1.00;;;;;;5095267;28;20457;-69
2021/05/06 02:47:14;;;;;;;5.63;2.10;;;6.00;1.00;;;;;;5095654;28;20166;-69
2021/05/06 02:49:45;;;;;;;2.97;1.90;;;5.90;1.00;;;;;;5095316;28;20709;-69
2021/05/06 02:52:17;;;;;;;3.58;1.52;;;5.90;1.00;;;;;;5095231;28;20181;-69
2021/05/06 02:54:46;;;;;;;2.38;1.30;;;6.00;1.00;;;;;;5095458;28;20183;-69
2021/05/06 02:57:27;;;;;;;3.05;2.17;;;5.90;1.00;;;;;;5095329;28;20164;-69
2021/05/06 03:02:50;;;;;;;2.83;1.80;;;5.90;1.00;;;;;;5095946;28;20167;-69
2021/05/06 03:05:17;;;;;;;3.90;1.80;;;5.80;1.00;;;;;;5095601;28;20260;-68
2021/05/06 03:07:48;;;;;;;2.95;1.73;;;5.90;1.00;;;;;;5094803;28;20179;-69
2021/05/06 03:21:02;;;;;;;3.63;1.80;;;5.90;1.00;;;;;;5095089;28;20219;-69
2021/05/06 03:23:25;;;;;;;3.17;1.50;;;6.00;1.00;;;;;;5094683;28;20286;-68
2021/05/06 03:25:50;;;;;;;2.63;1.40;;;5.90;1.00;;;;;;5094582;28;20210;-69
2021/05/06 03:28:25;;;;;;;4.40;1.73;;;6.00;1.00;;;;;;5095069;28;20206;-69
2021/05/06 03:31:10;;;;;;;3.63;1.40;;;6.00;1.00;;;;;;5094600;28;20223;-69
2021/05/06 04:16:50;;;;;;;5.35;1.75;;;6.20;1.00;;;;;;5052270;28;20667;-69
2021/05/06 04:21:44;;;;;;;1.63;1.07;;;6.10;1.00;;;;;;5093427;28;20274;-69
2021/05/06 04:37:34;;;;;;;6.85;2.00;;;6.10;1.00;;;;;;5093335;28;20167;-70
2021/05/06 04:40:09;;;;;;;4.53;1.80;;;6.40;1.00;;;;;;5093463;28;20184;-70
2021/05/06 04:55:39;;;;;;;10.57;2.42;;;6.40;1.00;;;;;;5093006;28;20202;-69
2021/05/06 05:03:37;;;;;;;6.20;3.13;;;6.40;1.00;;;;;;5092923;28;20209;-70
2021/05/06 05:06:03;;;;;;;21.98;10.57;;;6.50;1.00;;;;;;5093136;28;20604;-70
2021/05/06 05:08:35;;;;;;;26.00;11.50;;;6.60;1.00;;;;;;5093095;28;20725;-69
2021/05/06 05:13:40;;;;;;;14.43;6.83;;;6.60;1.00;;;;;;5092727;28;20175;-70
2021/05/06 05:19:12;;;;;;;7.13;3.35;;;6.90;1.00;;;;;;5094583;28;20221;-70
2021/05/06 05:23:25;;;;;;;5.88;2.22;;;6.70;1.00;;;;;;5096829;28;20159;-69
2021/05/06 05:26:49;;;;;;;7.10;3.53;;;7.00;1.00;;;;;;5096901;28;20172;-70
2021/05/06 05:29:14;;;;;;;12.23;3.83;;;7.10;1.00;;;;;;5096562;28;20199;-70
2021/05/06 05:31:40;;;;;;;11.03;2.77;;;7.20;1.00;;;;;;5096538;28;20171;-69
2021/05/06 05:36:53;;;;;;;5.78;3.25;;;7.10;1.00;;;;;;5096836;28;20240;-69
2021/05/06 05:39:49;;;;;;;6.80;2.25;;;7.30;1.00;;;;;;5096468;28;20163;-70
2021/05/06 05:45:20;;;;;;;4.82;1.92;;;7.20;1.00;;;;;;5095555;28;20286;-69
2021/05/06 05:55:30;;;;;;;11.23;3.55;;;7.50;1.00;;;;;;5096368;28;20206;-69
2021/05/06 05:57:55;;;;;;;21.87;2.87;;;7.50;1.00;;;;;;5096517;28;20171;-69
2021/05/06 06:00:21;;;;;;;9.07;2.40;;;7.40;1.00;;;;;;5096249;28;20183;-69
2021/05/06 06:02:47;;;;;;;7.13;2.90;;;7.50;1.00;;;;;;5094777;28;20594;-69
2021/05/06 06:05:13;;;;;;;12.20;3.90;;;7.50;1.00;;;;;;5095909;28;20722;-69
2021/05/06 06:07:38;;;;;;;10.05;4.07;;;7.20;1.00;;;;;;5095796;28;20413;-68
2021/05/06 06:10:05;;;;;;;15.67;5.43;;;7.40;1.00;;;;;;5096031;28;20167;-69
2021/05/06 06:12:31;;;;;;;7.22;3.75;;;7.40;1.00;;;;;;5095921;28;20221;-69
2021/05/06 06:15:05;;;;;;;11.37;4.10;;;7.50;1.00;;;;;;5095683;28;20195;-68
2021/05/06 06:17:38;;;;;;;7.97;4.60;;;7.60;1.00;;;;;;5096041;28;20159;-69
2021/05/06 06:20:04;;;;;;;7.07;4.70;;;7.40;1.00;;;;;;5096066;28;20504;-69
2021/05/06 06:22:31;;;;;;;13.30;4.53;;;7.50;1.00;;;;;;5095826;28;20176;-69
2021/05/06 06:24:57;;;;;;;5.97;4.95;;;7.50;1.00;;;;;;5095438;28;20199;-69
2021/05/06 06:27:23;;;;;;;14.73;5.75;;;7.50;1.00;;;;;;5095410;28;20162;-69
2021/05/06 06:29:48;;;;;;;10.23;5.10;;;7.50;1.00;;;;;;5094636;28;20163;-69
2021/05/06 06:32:16;;;;;;;15.60;5.33;;;7.60;1.00;;;;;;5095479;28;20172;-68
2021/05/06 06:34:42;;;;;;;6.25;4.20;;;7.40;1.00;;;;;;5095157;28;20187;-68
2021/05/06 06:37:08;;;;;;;7.13;4.73;;;7.20;1.00;;;;;;5095433;28;20173;-69
2021/05/06 06:39:36;;;;;;;32.50;7.27;;;7.50;1.00;;;;;;5095327;28;20206;-69
2021/05/06 06:42:02;;;;;;;35.00;8.90;;;7.50;1.00;;;;;;5095379;28;20745;-71
2021/05/06 06:44:29;;;;;;;34.87;6.37;;;7.40;1.00;;;;;;5094864;28;20327;-69
2021/05/06 06:47:02;;;;;;;15.95;6.00;;;7.70;1.00;;;;;;5095132;28;20280;-70
2021/05/06 06:49:38;;;;;;;6.55;4.53;;;7.80;1.00;;;;;;5095343;28;20170;-69
2021/05/06 06:52:07;;;;;;;17.38;4.95;;;7.90;1.00;;;;;;5095618;28;20502;-69
2021/05/06 06:54:33;;;;;;;8.45;5.00;;;7.90;1.00;;;;;;5094965;28;20207;-68
2021/05/06 06:56:59;;;;;;;11.97;5.00;;;7.90;1.00;;;;;;5095168;28;20168;-69
2021/05/06 06:59:25;;;;;;;7.00;4.47;;;8.20;1.00;;;;;;5093589;28;20493;-69
2021/05/06 07:01:51;;;;;;;5.60;3.78;;;7.90;1.00;;;;;;5094813;28;20666;-69
2021/05/06 07:04:16;;;;;;;6.83;4.97;;;8.20;1.00;;;;;;5095250;28;20290;-69
2021/05/06 07:06:42;;;;;;;9.47;5.53;;;8.30;99.90;;;;;;5094742;28;20185;-69
2021/05/06 07:09:09;;;;;;;9.20;3.73;;;8.30;99.90;;;;;;5094618;28;20194;-69
2021/05/06 07:11:38;;;;;;;5.22;3.75;;;8.10;99.90;;;;;;5094620;28;20167;-69
2021/05/06 07:14:05;;;;;;;12.95;4.18;;;8.30;99.90;;;;;;5094680;28;20233;-69
2021/05/06 07:16:31;;;;;;;9.80;3.70;;;8.40;99.90;;;;;;5094948;28;20164;-69
2021/05/06 07:18:57;;;;;;;5.45;4.18;;;8.60;99.90;;;;;;5094567;28;20521;-69
2021/05/06 07:21:24;;;;;;;10.65;4.28;;;8.10;99.90;;;;;;5094709;28;20305;-70
2021/05/06 07:23:53;;;;;;;9.40;3.65;;;8.60;99.90;;;;;;5094456;28;20208;-70
2021/05/06 07:26:19;;;;;;;6.07;5.05;;;8.80;99.90;;;;;;5094607;28;20544;-70
2021/05/06 07:28:44;;;;;;;10.40;4.20;;;8.80;99.90;;;;;;5094377;28;20164;-70
2021/05/06 07:31:11;;;;;;;8.40;4.20;;;8.90;99.90;;;;;;5094423;28;20164;-70
2021/05/06 07:33:39;;;;;;;6.95;3.20;;;8.40;99.90;;;;;;5094102;28;20679;-70
2021/05/06 07:36:05;;;;;;;17.88;6.32;;;8.80;99.90;;;;;;5094216;28;20222;-70
2021/05/06 07:38:31;;;;;;;5.80;3.73;;;9.00;99.90;;;;;;5094048;28;20574;-70
2021/05/06 07:41:00;;;;;;;3.10;2.70;;;8.70;99.90;;;;;;5094321;28;20176;-70
2021/05/06 07:43:26;;;;;;;4.47;3.33;;;8.50;99.90;;;;;;5094134;28;20231;-69
2021/05/06 07:45:52;;;;;;;28.52;5.47;;;8.40;99.90;;;;;;5092752;28;20207;-69
2021/05/06 07:48:18;;;;;;;4.95;3.05;;;8.80;99.90;;;;;;5093852;28;20160;-68
2021/05/06 07:50:44;;;;;;;14.63;4.50;;;8.80;99.90;;;;;;5093543;28;20179;-69
2021/05/06 07:53:15;;;;;;;90.70;11.90;;;8.90;99.90;;;;;;5093643;28;20372;-69
2021/05/06 07:55:41;;;;;;;4.45;2.95;;;9.30;99.90;;;;;;5093640;28;20217;-69
2021/05/06 07:58:07;;;;;;;9.93;3.80;;;9.30;99.90;;;;;;5093982;28;20183;-69
2021/05/06 08:00:34;;;;;;;8.23;3.53;;;9.30;99.90;;;;;;5093761;28;20164;-69
2021/05/06 08:03:00;;;;;;;5.60;2.55;;;9.30;99.90;;;;;;5093888;28;20180;-69
2021/05/06 08:05:26;;;;;;;9.43;2.87;;;9.20;99.90;;;;;;5094179;28;20585;-69
2021/05/06 08:07:52;;;;;;;8.57;3.70;;;9.00;99.90;;;;;;5092295;28;20896;-69
2021/05/06 08:10:18;;;;;;;4.17;2.67;;;9.20;99.90;;;;;;5093765;28;20203;-69
2021/05/06 08:12:44;;;;;;;6.53;3.27;;;9.00;99.90;;;;;;5093816;28;20199;-69
2021/05/06 08:15:11;;;;;;;8.55;3.30;;;9.00;99.90;;;;;;5093444;28;20424;-70
2021/05/06 08:17:39;;;;;;;9.07;3.17;;;9.40;99.90;;;;;;5093392;28;20168;-69
2021/05/06 08:20:07;;;;;;;6.43;3.20;;;9.40;99.90;;;;;;5093245;28;20438;-69
2021/05/06 08:22:32;;;;;;;7.23;2.93;;;9.60;99.90;;;;;;5093120;28;20890;-69
2021/05/06 08:24:58;;;;;;;9.43;2.93;;;9.60;99.90;;;;;;5093073;28;20472;-69
2021/05/06 08:27:23;;;;;;;5.40;3.40;;;9.80;99.90;;;;;;5092899;28;20167;-69
2021/05/06 08:29:49;;;;;;;7.73;3.50;;;9.60;99.90;;;;;;5093025;28;20574;-69
2021/05/06 08:32:15;;;;;;;13.17;3.70;;;9.60;99.90;;;;;;5092691;28;20218;-69
2021/05/06 08:34:40;;;;;;;6.27;3.30;;;10.20;99.90;;;;;;5092597;28;20199;-69
2021/05/06 08:37:06;;;;;;;7.07;2.90;;;10.90;99.90;;;;;;5092614;28;20304;-68
2021/05/06 08:39:31;;;;;;;3.53;2.90;;;10.50;99.90;;;;;;5092753;28;20164;-69
2021/05/06 08:41:57;;;;;;;14.00;3.83;;;10.30;99.90;;;;;;5092754;28;20246;-70
2021/05/06 08:44:30;;;;;;;6.27;2.40;;;10.70;99.90;;;;;;5093054;28;20230;-69
2021/05/06 08:47:04;;;;;;;30.87;5.13;;;10.80;99.90;;;;;;5091935;28;20177;-69
2021/05/06 08:49:34;;;;;;;7.73;2.57;;;10.90;99.90;;;;;;5093019;28;20406;-70
2021/05/06 08:52:02;;;;;;;6.07;2.87;;;10.80;99.90;;;;;;5092731;28;20860;-70
2021/05/06 08:54:28;;;;;;;2.80;2.00;;;10.60;99.90;;;;;;5092005;28;20927;-70
2021/05/06 08:56:54;;;;;;;5.53;2.80;;;10.20;99.90;;;;;;5092638;28;20405;-70
2021/05/06 08:59:19;;;;;;;2.53;2.20;;;10.60;99.90;;;;;;5092732;28;20171;-69
2021/05/06 09:01:46;;;;;;;9.30;2.73;;;10.80;99.90;;;;;;5092615;28;20171;-69
2021/05/06 09:04:12;;;;;;;3.87;2.33;;;11.00;99.90;;;;;;5092280;28;20191;-68
2021/05/06 09:06:58;;;;;;;5.30;2.10;;;11.30;99.90;;;;;;5091609;28;20409;-69
2021/05/06 09:09:25;;;;;;;3.23;2.20;;;11.40;99.90;;;;;;5091112;28;20186;-69
2021/05/06 09:11:56;;;;;;;4.17;2.03;;;11.20;99.90;;;;;;5092305;28;20425;-69
2021/05/06 09:14:45;;;;;;;9.63;3.10;;;11.90;99.90;;;;;;5091900;28;20475;-68
2021/05/06 09:17:28;;;;;;;12.83;2.80;;;12.40;99.90;;;;;;5091549;28;20386;-69
2021/05/06 09:20:14;;;;;;;16.63;4.80;;;12.30;99.90;;;;;;5092114;28;20773;-70
2021/05/06 09:22:43;;;;;;;6.50;2.03;;;11.70;99.90;;;;;;5091799;28;20420;-70
2021/05/06 09:25:36;;;;;;;8.50;2.67;;;11.80;99.90;;;;;;5090415;28;20993;-69
2021/05/06 09:28:10;;;;;;;6.17;3.03;;;11.20;99.90;;;;;;5092289;28;20398;-70
2021/05/06 09:31:04;;;;;;;4.23;2.47;;;11.70;99.90;;;;;;5092190;28;20355;-68
2021/05/06 09:33:35;;;;;;;2.70;1.67;;;11.80;99.90;;;;;;5092232;28;20390;-70
2021/05/06 09:36:17;;;;;;;7.50;2.43;;;11.80;99.90;;;;;;5091493;28;20372;-70
2021/05/06 09:38:50;;;;;;;26.80;12.87;;;12.20;99.90;;;;;;5092511;28;20401;-70
2021/05/06 09:41:30;;;;;;;8.73;3.40;;;12.40;99.90;;;;;;5092635;28;20433;-70
2021/05/06 09:44:11;;;;;;;2.50;2.07;;;13.00;99.90;;;;;;5092349;28;20453;-69
2021/05/06 09:46:43;;;;;;;8.90;4.93;;;12.80;99.90;;;;;;5092461;28;20397;-71
2021/05/06 09:49:15;;;;;;;8.17;3.23;;;12.40;99.90;;;;;;5092710;28;20376;-70
2021/05/06 09:51:58;;;;;;;9.63;2.10;;;12.40;99.90;;;;;;5091211;28;20787;-70
2021/05/06 09:54:27;;;;;;;3.90;2.27;;;11.80;99.90;;;;;;5074282;28;20433;-70
2021/05/06 09:57:05;;;;;;;14.90;2.37;;;11.90;99.90;;;;;;5092518;28;20755;-70
2021/05/06 09:59:33;;;;;;;5.73;1.47;;;12.10;99.90;;;;;;5093115;28;20360;-69
2021/05/06 10:02:32;;;;;;;1.67;1.20;;;11.50;99.90;;;;;;5091290;28;20417;-70
2021/05/06 10:05:09;;;;;;;8.83;3.70;;;12.40;99.90;;;;;;5092567;28;20552;-70
2021/05/06 10:07:34;;;;;;;3.10;2.80;;;13.10;99.90;;;;;;5095747;28;20424;-70
2021/05/06 10:10:02;;;;;;;3.37;1.77;;;13.30;99.90;;;;;;5096257;28;20439;-70
2021/05/06 10:12:32;;;;;;;2.53;1.67;;;12.90;99.90;;;;;;5096090;28;20172;-70
2021/05/06 10:14:59;;;;;;;8.80;1.30;;;12.40;99.90;;;;;;5095732;28;20516;-70
2021/05/06 10:17:29;;;;;;;1.97;1.13;;;12.40;99.90;;;;;;5095626;28;20786;-72
2021/05/06 10:19:56;;;;;;;1.90;0.77;;;13.10;99.90;;;;;;5095531;28;20410;-69
2021/05/06 10:22:24;;;;;;;3.13;1.30;;;13.40;99.90;;;;;;5095798;28;20410;-69
2021/05/06 10:24:50;;;;;;;2.87;1.40;;;13.40;99.90;;;;;;5095922;28;20537;-70
2021/05/06 10:27:21;;;;;;;3.33;1.17;;;13.70;99.90;;;;;;5096171;28;20402;-71
2021/05/06 10:29:52;;;;;;;5.17;1.40;;;13.70;99.90;;;;;;5096765;28;20390;-70
2021/05/06 10:32:18;;;;;;;5.43;3.20;;;13.10;99.90;;;;;;5096487;28;20394;-70
2021/05/06 10:34:46;;;;;;;5.53;1.20;;;13.20;99.90;;;;;;5094142;28;20471;-71
2021/05/06 10:37:12;;;;;;;4.30;2.23;;;12.60;99.90;;;;;;5095920;28;20409;-71
2021/05/06 10:39:40;;;;;;;6.03;3.00;;;13.40;99.90;;;;;;5095188;28;20412;-70
2021/05/06 10:42:33;;;;;;;34.93;3.73;;;13.90;99.90;;;;;;5094612;28;20521;-70
2021/05/06 10:45:18;;;;;;;2.70;1.03;;;13.50;99.90;;;;;;5092021;28;20465;-71
2021/05/06 10:47:48;;;;;;;5.80;2.63;;;12.70;99.90;;;;;;5095305;28;20774;-71
2021/05/06 10:50:33;;;;;;;1.40;0.83;;;13.10;99.90;;;;;;5096170;28;20920;-72
2021/05/06 10:53:00;;;;;;;5.10;1.70;;;13.40;99.90;;;;;;5095746;28;20390;-70
2021/05/06 10:55:42;;;;;;;4.33;1.73;;;13.50;99.90;;;;;;5094772;28;20433;-70
2021/05/06 10:58:23;;;;;;;1.90;1.53;;;13.60;99.90;;;;;;5095010;28;20455;-70
2021/05/06 11:01:05;;;;;;;5.60;1.00;;;13.60;99.90;;;;;;5094789;28;20418;-69
2021/05/06 11:03:32;;;;;;;6.10;3.30;;;14.10;99.90;;;;;;5094640;28;20452;-70
2021/05/06 11:05:58;;;;;;;5.67;1.33;;;14.80;99.90;;;;;;5094333;28;20492;-71
2021/05/06 11:08:29;;;;;;;2.43;1.20;;;14.50;99.90;;;;;;5095016;28;20427;-71
2021/05/06 11:11:00;;;;;;;4.97;3.83;;;14.60;99.90;;;;;;5095100;28;20887;-71
2021/05/06 11:13:26;;;;;;;12.97;2.10;;;14.10;99.90;;;;;;5094769;28;20433;-70
2021/05/06 11:16:12;;;;;;;3.63;1.47;;;14.80;99.90;;;;;;5093261;28;20492;-71
2021/05/06 11:18:51;;;;;;;2.77;1.53;;;15.10;99.90;;;;;;5094465;28;20729;-71
2021/05/06 11:21:33;;;;;;;4.10;1.17;;;15.00;99.90;;;;;;5094264;28;20384;-71
2021/05/06 11:24:25;;;;;;;2.83;1.40;;;15.10;99.90;;;;;;5093170;28;20497;-72
2021/05/06 11:27:00;;;;;;;7.43;3.27;;;14.60;99.90;;;;;;5094799;28;20490;-72
2021/05/06 11:29:29;;;;;;;2.33;1.30;;;14.50;99.90;;;;;;5094338;28;20859;-71
2021/05/06 11:31:56;;;;;;;4.73;1.57;;;14.70;99.90;;;;;;5094029;28;20391;-70
2021/05/06 11:34:32;;;;;;;8.73;1.50;;;14.20;99.90;;;;;;5093847;28;20432;-69
2021/05/06 11:37:14;;;;;;;2.83;1.07;;;13.50;99.90;;;;;;5094374;28;20394;-69
2021/05/06 11:39:52;;;;;;;3.13;1.57;;;13.80;99.90;;;;;;5094483;28;20382;-72
2021/05/06 11:42:19;;;;;;;58.07;7.77;;;13.80;99.90;;;;;;5094959;28;20388;-71
2021/05/06 11:45:11;;;;;;;20.27;2.63;;;13.40;99.90;;;;;;5094459;28;20502;-73
2021/05/06 11:47:37;;;;;;;7.90;1.00;;;13.50;99.90;;;;;;5083307;28;20418;-73
2021/05/06 11:50:31;;;;;;;6.30;1.87;;;13.40;99.90;;;;;;5094243;28;20488;-72
2021/05/06 11:52:59;;;;;;;42.03;5.77;;;13.60;99.90;;;;;;5094293;28;20411;-70
2021/05/06 11:55:34;;;;;;;4.60;1.30;;;14.00;99.90;;;;;;5094053;28;20487;-69
2021/05/06 11:58:00;;;;;;;9.90;1.40;;;13.90;99.90;;;;;;5093943;28;20413;-70
2021/05/06 12:00:30;;;;;;;4.20;1.10;;;13.80;99.90;;;;;;5094041;28;20406;-71
2021/05/06 12:03:06;;;;;;;1.87;0.60;;;14.00;99.90;;;;;;5094057;28;20774;-71
2021/05/06 12:05:50;;;;;;;3.33;1.20;;;13.70;99.90;;;;;;5093686;28;20482;-70
2021/05/06 12:08:16;;;;;;;3.43;1.27;;;13.30;99.90;;;;;;5093609;28;20421;-71
2021/05/06 12:10:42;;;;;;;5.20;2.70;;;13.70;99.90;;;;;;5093822;28;20496;-71
2021/05/06 12:13:09;;;;;;;11.20;2.70;;;13.80;99.90;;;;;;5094100;28;20477;-71
2021/05/06 12:15:35;;;;;;;13.70;3.87;;;14.10;99.90;;;;;;5094041;28;20434;-72
2021/05/06 12:18:20;;;;;;;200.70;22.03;;;14.40;99.90;;;;;;5093699;28;20396;-71
2021/05/06 12:20:49;;;;;;;6.20;1.87;;;14.60;99.90;;;;;;5093995;28;20386;-71
2021/05/06 12:23:15;;;;;;;11.73;2.90;;;14.80;99.90;;;;;;5093865;28;20500;-70
2021/05/06 12:25:41;;;;;;;2.80;1.20;;;14.70;99.90;;;;;;5093816;28;20505;-71
2021/05/06 12:28:06;;;;;;;3.57;1.50;;;14.60;99.90;;;;;;5093034;28;20171;-71
2021/05/06 12:30:33;;;;;;;5.27;1.30;;;14.20;99.90;;;;;;5093713;28;20176;-71
2021/05/06 12:32:58;;;;;;;3.83;1.87;;;14.50;99.90;;;;;;5092139;28;20169;-70
2021/05/06 12:35:24;;;;;;;3.40;1.83;;;14.50;99.90;;;;;;5093240;28;21030;-70
2021/05/06 12:37:53;;;;;;;2.07;1.27;;;14.80;99.90;;;;;;5093328;28;20177;-70
2021/05/06 12:40:19;;;;;;;30.73;3.17;;;14.50;99.90;;;;;;5093145;28;20256;-70
2021/05/06 12:42:45;;;;;;;5.13;1.53;;;15.10;99.90;;;;;;5093532;28;20412;-70
2021/05/06 12:45:13;;;;;;;3.50;1.30;;;15.30;99.90;;;;;;5093475;28;21035;-72
2021/05/06 12:47:44;;;;;;;3.63;1.23;;;15.50;99.90;;;;;;5092447;28;20544;-72
2021/05/06 12:50:13;;;;;;;24.90;3.80;;;15.40;99.90;;;;;;5092925;28;20533;-72
2021/05/06 12:52:44;;;;;;;3.87;1.43;;;15.10;99.90;;;;;;5093432;28;20444;-69
2021/05/06 12:55:30;;;;;;;3.13;2.17;;;15.10;99.90;;;;;;5093822;28;20425;-71
2021/05/06 12:58:17;;;;;;;2.33;1.17;;;15.10;99.90;;;;;;5093198;28;20394;-71
2021/05/06 13:01:11;;;;;;;2.97;2.20;;;14.60;99.90;;;;;;5093076;28;20405;-69
2021/05/06 13:03:44;;;;;;;2.17;1.20;;;14.50;99.90;;;;;;5093115;28;20975;-69
2021/05/06 13:06:15;;;;;;;5.20;2.30;;;14.30;99.90;;;;;;5093745;28;20436;-71
2021/05/06 13:08:44;;;;;;;3.63;1.20;;;14.40;99.90;;;;;;5093461;28;20451;-71
2021/05/06 13:11:14;;;;;;;3.60;1.90;;;15.40;99.90;;;;;;5093259;28;20457;-71
2021/05/06 13:13:41;;;;;;;1.57;1.30;;;14.60;99.90;;;;;;5093348;28;20483;-73
2021/05/06 13:16:09;;;;;;;5.20;1.90;;;14.30;99.90;;;;;;5093190;28;20819;-71
2021/05/06 13:18:36;;;;;;;3.80;2.00;;;14.20;99.90;;;;;;5093346;28;20774;-72
2021/05/06 13:21:03;;;;;;;16.37;2.90;;;15.00;99.90;;;;;;5093010;28;20415;-70
2021/05/06 13:23:31;;;;;;;4.87;1.80;;;14.30;99.90;;;;;;5092365;28;20404;-69
2021/05/06 13:26:00;;;;;;;28.53;3.87;;;14.70;99.90;;;;;;5092586;28;20722;-72
2021/05/06 13:28:32;;;;;;;2.50;1.33;;;14.50;99.90;;;;;;5093266;28;20784;-72
2021/05/06 13:31:20;;;;;;;51.07;6.83;;;14.10;99.90;;;;;;5091730;28;20411;-71
2021/05/06 13:33:47;;;;;;;2.80;1.17;;;14.30;99.90;;;;;;5093080;28;20421;-70
2021/05/06 13:36:18;;;;;;;8.50;1.40;;;14.60;99.90;;;;;;5093420;28;20439;-70
2021/05/06 13:39:01;;;;;;;6.37;1.50;;;14.90;99.90;;;;;;5093308;28;20778;-71
2021/05/06 13:41:30;;;;;;;4.40;1.80;;;14.50;99.90;;;;;;5097208;28;20396;-69
2021/05/06 13:43:58;;;;;;;112.57;11.83;;;14.30;99.90;;;;;;5096376;28;20496;-70
2021/05/06 13:46:26;;;;;;;4.13;0.97;;;14.40;99.90;;;;;;5096474;28;20412;-71
2021/05/06 13:48:52;;;;;;;7.27;2.30;;;13.90;99.90;;;;;;5097119;28;20800;-72
2021/05/06 13:51:20;;;;;;;1.87;1.00;;;14.00;99.90;;;;;;5097360;28;20450;-71
2021/05/06 13:53:48;;;;;;;3.17;2.13;;;13.60;99.90;;;;;;5097273;28;20839;-73
2021/05/06 13:56:14;;;;;;;5.10;2.90;;;13.60;99.90;;;;;;5097361;28;20407;-71
2021/05/06 13:58:40;;;;;;;6.00;1.83;;;13.80;99.90;;;;;;5097224;28;20459;-71
2021/05/06 14:01:07;;;;;;;2.87;1.60;;;13.60;99.90;;;;;;5097382;28;20398;-71
2021/05/06 14:03:33;;;;;;;6.33;1.50;;;13.90;99.90;;;;;;5096303;28;20762;-70
2021/05/06 14:06:02;;;;;;;3.63;1.63;;;13.90;99.90;;;;;;5095551;28;20409;-71
2021/05/06 14:08:28;;;;;;;2.60;1.50;;;13.60;99.90;;;;;;5094714;28;20433;-71
2021/05/06 14:10:54;;;;;;;6.83;2.30;;;13.30;99.90;;;;;;5096549;28;20927;-70
2021/05/06 14:13:20;;;;;;;2.30;1.63;;;13.10;99.90;;;;;;5096496;28;20183;-72
2021/05/06 14:15:46;;;;;;;5.20;1.93;;;13.20;99.90;;;;;;5096827;28;20409;-71
2021/05/06 14:18:13;;;;;;;6.57;3.03;;;13.00;99.90;;;;;;5096492;28;20215;-73
2021/05/06 14:20:41;;;;;;;3.30;2.10;;;13.00;99.90;;;;;;5096006;28;20419;-71
2021/05/06 14:23:08;;;;;;;4.00;1.50;;;13.00;99.90;;;;;;5095451;28;20723;-71
2021/05/06 14:25:34;;;;;;;82.13;9.57;;;13.30;99.90;;;;;;5095354;28;20449;-68
2021/05/06 14:28:01;;;;;;;7.03;2.63;;;13.10;99.90;;;;;;5096786;28;20441;-72
2021/05/06 14:30:27;;;;;;;13.63;3.30;;;13.20;99.90;;;;;;5096624;28;20409;-71
2021/05/06 14:32:53;;;;;;;2.90;2.10;;;13.30;99.90;;;;;;5096753;28;20474;-72
2021/05/06 14:35:18;;;;;;;9.63;3.70;;;13.20;99.90;;;;;;5096363;28;20199;-72
2021/05/06 14:37:44;;;;;;;3.53;1.80;;;13.10;99.90;;;;;;5096110;28;20183;-71
2021/05/06 14:40:11;;;;;;;1.70;1.30;;;12.80;99.90;;;;;;5096070;28;20236;-72
2021/05/06 14:42:36;;;;;;;52.43;7.70;;;12.70;99.90;;;;;;5095708;28;20317;-70
2021/05/06 14:45:04;;;;;;;4.97;2.70;;;12.50;99.90;;;;;;5095703;28;20946;-71
2021/05/06 14:47:29;;;;;;;3.57;1.30;;;12.60;99.90;;;;;;5095383;28;20167;-70
2021/05/06 14:49:56;;;;;;;3.57;1.63;;;12.90;99.90;;;;;;5096211;28;20674;-72
2021/05/06 14:52:22;;;;;;;6.30;1.53;;;12.70;99.90;;;;;;5094602;28;20164;-72
2021/05/06 14:54:48;;;;;;;4.17;1.30;;;12.80;99.90;;;;;;5094962;28;20936;-69
2021/05/06 14:57:14;;;;;;;5.50;2.20;;;13.00;99.90;;;;;;5095154;28;20510;-69
2021/05/06 14:59:39;;;;;;;16.70;2.80;;;13.00;99.90;;;;;;5094931;28;20286;-69
2021/05/06 15:02:05;;;;;;;6.67;1.53;;;12.70;99.90;;;;;;5095272;28;20644;-71
2021/05/06 15:04:31;;;;;;;3.63;1.50;;;12.80;99.90;;;;;;5094747;28;20507;-69
2021/05/06 15:06:56;;;;;;;3.53;1.70;;;12.90;99.90;;;;;;5094742;28;20186;-70
2021/05/06 15:09:24;;;;;;;3.33;1.80;;;12.20;99.90;;;;;;5094551;28;20257;-70
2021/05/06 15:11:50;;;;;;;5.13;2.30;;;12.30;99.90;;;;;;5094585;28;20222;-70
2021/05/06 15:14:16;;;;;;;3.10;1.50;;;12.00;99.90;;;;;;5094238;28;20438;-69
2021/05/06 15:16:41;;;;;;;6.00;1.63;;;11.70;99.90;;;;;;5094590;28;20497;-69
2021/05/06 15:19:07;;;;;;;2.30;1.40;;;11.90;99.90;;;;;;5092941;28;20278;-70
2021/05/06 15:21:33;;;;;;;5.37;1.70;;;12.30;99.90;;;;;;5093328;28;20175;-70
2021/05/06 15:23:58;;;;;;;4.33;2.60;;;12.40;99.90;;;;;;5094272;28;20499;-69
2021/05/06 15:26:24;;;;;;;2.43;1.50;;;12.10;99.90;;;;;;5092767;28;20171;-69
2021/05/06 15:28:51;;;;;;;2.80;1.60;;;11.70;99.90;;;;;;5094214;28;20171;-70
2021/05/06 15:31:18;;;;;;;2.43;1.60;;;11.40;99.90;;;;;;5094233;28;20187;-69
2021/05/06 15:33:43;;;;;;;4.93;1.77;;;11.80;99.90;;;;;;5094173;28;20794;-69
2021/05/06 15:36:11;;;;;;;2.93;1.90;;;11.90;99.90;;;;;;5094196;28;20425;-70
2021/05/06 15:38:37;;;;;;;2.20;1.83;;;12.00;99.90;;;;;;5092666;28;20178;-69
2021/05/06 15:41:02;;;;;;;2.90;1.60;;;11.90;99.90;;;;;;5093941;28;20406;-69
2021/05/06 15:43:28;;;;;;;5.77;1.77;;;11.90;99.90;;;;;;5093836;28;20172;-70
2021/05/06 15:45:55;;;;;;;3.13;1.80;;;11.80;99.90;;;;;;5094004;28;20221;-70
2021/05/06 15:48:21;;;;;;;5.13;1.87;;;11.90;99.90;;;;;;5093719;28;20167;-70
2021/05/06 15:50:46;;;;;;;2.43;1.77;;;12.00;99.90;;;;;;5093957;28;20452;-70
2021/05/06 15:53:12;;;;;;;4.40;2.40;;;11.50;99.90;;;;;;5094036;28;20179;-70
2021/05/06 15:55:37;;;;;;;3.13;2.10;;;11.50;99.90;;;;;;5093973;28;20195;-70
2021/05/06 15:58:05;;;;;;;5.70;2.17;;;11.60;99.90;;;;;;5094211;28;20171;-70
2021/05/06 16:00:31;;;;;;;3.33;1.90;;;11.50;99.90;;;;;;5094054;28;20217;-69
2021/05/06 16:03:02;;;;;;;4.33;2.10;;;11.20;99.90;;;;;;5092833;28;20428;-70
2021/05/06 16:05:29;;;;;;;5.20;2.30;;;11.20;99.90;;;;;;5093462;28;20511;-69
2021/05/06 16:07:56;;;;;;;4.40;2.43;;;11.10;99.90;;;;;;5093542;28;20937;-70